sensor_id;sensor_type;location;lat;lon;timestamp;P1;durP1;ratioP1;P2;durP2;ratioP2
52894;SDS011;38759;53.396;6.722;2023-07-13T00:00:53;8.73;;;2.67;;
52894;SDS011;38759;53.396;6.722;2023-07-13T00:03:18;13.93;;;2.88;;
52894;SDS011;38759;53.396;6.722;2023-07-13T00:05:44;9.15;;;2.85;;
52894;SDS011;38759;53.396;6.722;2023-07-13T00:08:10;9.15;;;2.67;;
52894;SDS011;38759;53.396;6.722;2023-07-13T00:10:42;13.13;;;2.53;;
52894;SDS011;38759;53.396;6.722;2023-07-13T00:13:10;14.18;;;2.95;;
52894;SDS011;38759;53.396;6.722;2023-07-13T00:15:36;12.30;;;2.45;;
52894;SDS011;38759;53.396;6.722;2023-07-13T00:18:02;13.52;;;3.28;;
52894;SDS011;38759;53.396;6.722;2023-07-13T00:20:27;15.05;;;2.90;;
52894;SDS011;38759;53.396;6.722;2023-07-13T00:22:53;18.27;;;3.33;;
52894;SDS011;38759;53.396;6.722;2023-07-13T00:25:20;17.20;;;3.67;;
52894;SDS011;38759;53.396;6.722;2023-07-13T00:27:47;12.98;;;2.88;;
52894;SDS011;38759;53.396;6.722;2023-07-13T00:30:16;10.43;;;2.83;;
52894;SDS011;38759;53.396;6.722;2023-07-13T00:32:42;14.10;;;3.67;;
52894;SDS011;38759;53.396;6.722;2023-07-13T00:35:08;18.35;;;2.95;;
52894;SDS011;38759;53.396;6.722;2023-07-13T00:37:34;8.68;;;2.55;;
52894;SDS011;38759;53.396;6.722;2023-07-13T00:40:01;12.27;;;3.15;;
52894;SDS011;38759;53.396;6.722;2023-07-13T00:42:28;13.80;;;2.47;;
52894;SDS011;38759;53.396;6.722;2023-07-13T00:45:01;21.10;;;3.08;;
52894;SDS011;38759;53.396;6.722;2023-07-13T00:47:32;23.05;;;3.95;;
52894;SDS011;38759;53.396;6.722;2023-07-13T00:49:58;14.10;;;3.15;;
52894;SDS011;38759;53.396;6.722;2023-07-13T00:52:24;23.75;;;3.58;;
52894;SDS011;38759;53.396;6.722;2023-07-13T00:54:50;13.23;;;2.97;;
52894;SDS011;38759;53.396;6.722;2023-07-13T00:57:17;14.52;;;2.40;;
52894;SDS011;38759;53.396;6.722;2023-07-13T00:59:46;14.88;;;3.58;;
52894;SDS011;38759;53.396;6.722;2023-07-13T01:02:14;17.27;;;2.95;;
52894;SDS011;38759;53.396;6.722;2023-07-13T01:04:41;15.73;;;2.47;;
52894;SDS011;38759;53.396;6.722;2023-07-13T01:07:09;11.07;;;2.33;;
52894;SDS011;38759;53.396;6.722;2023-07-13T01:09:36;11.57;;;2.83;;
52894;SDS011;38759;53.396;6.722;2023-07-13T01:12:02;10.15;;;2.50;;
52894;SDS011;38759;53.396;6.722;2023-07-13T01:14:28;16.50;;;3.00;;
52894;SDS011;38759;53.396;6.722;2023-07-13T01:16:54;15.80;;;2.70;;
52894;SDS011;38759;53.396;6.722;2023-07-13T01:19:40;16.35;;;2.92;;
52894;SDS011;38759;53.396;6.722;2023-07-13T01:22:12;9.05;;;2.55;;
52894;SDS011;38759;53.396;6.722;2023-07-13T01:24:41;11.10;;;2.92;;
52894;SDS011;38759;53.396;6.722;2023-07-13T01:27:10;11.05;;;2.88;;
52894;SDS011;38759;53.396;6.722;2023-07-13T01:29:39;15.27;;;2.75;;
52894;SDS011;38759;53.396;6.722;2023-07-13T01:32:29;16.90;;;2.78;;
52894;SDS011;38759;53.396;6.722;2023-07-13T01:34:59;10.85;;;2.78;;
52894;SDS011;38759;53.396;6.722;2023-07-13T01:37:25;11.35;;;2.72;;
52894;SDS011;38759;53.396;6.722;2023-07-13T01:39:51;15.52;;;3.25;;
52894;SDS011;38759;53.396;6.722;2023-07-13T01:42:18;8.85;;;2.50;;
52894;SDS011;38759;53.396;6.722;2023-07-13T01:44:43;15.23;;;2.78;;
52894;SDS011;38759;53.396;6.722;2023-07-13T01:47:09;11.40;;;2.70;;
52894;SDS011;38759;53.396;6.722;2023-07-13T01:49:35;14.15;;;2.70;;
52894;SDS011;38759;53.396;6.722;2023-07-13T01:52:02;12.75;;;2.70;;
52894;SDS011;38759;53.396;6.722;2023-07-13T01:54:28;9.38;;;2.63;;
52894;SDS011;38759;53.396;6.722;2023-07-13T01:56:54;12.18;;;2.90;;
52894;SDS011;38759;53.396;6.722;2023-07-13T01:59:19;21.67;;;4.22;;
52894;SDS011;38759;53.396;6.722;2023-07-13T02:01:45;11.30;;;2.45;;
52894;SDS011;38759;53.396;6.722;2023-07-13T02:04:11;13.07;;;2.70;;
52894;SDS011;38759;53.396;6.722;2023-07-13T02:06:36;11.02;;;2.60;;
52894;SDS011;38759;53.396;6.722;2023-07-13T02:09:02;12.93;;;2.78;;
52894;SDS011;38759;53.396;6.722;2023-07-13T02:11:28;8.48;;;2.47;;
52894;SDS011;38759;53.396;6.722;2023-07-13T02:13:58;10.30;;;2.30;;
52894;SDS011;38759;53.396;6.722;2023-07-13T02:16:25;14.63;;;2.83;;
52894;SDS011;38759;53.396;6.722;2023-07-13T02:18:51;8.52;;;3.22;;
52894;SDS011;38759;53.396;6.722;2023-07-13T02:21:17;7.65;;;2.67;;
52894;SDS011;38759;53.396;6.722;2023-07-13T02:23:43;7.65;;;2.60;;
52894;SDS011;38759;53.396;6.722;2023-07-13T02:26:08;8.80;;;2.05;;
52894;SDS011;38759;53.396;6.722;2023-07-13T02:28:34;8.40;;;2.08;;
52894;SDS011;38759;53.396;6.722;2023-07-13T02:31:07;15.60;;;3.33;;
52894;SDS011;38759;53.396;6.722;2023-07-13T02:33:34;21.42;;;3.10;;
52894;SDS011;38759;53.396;6.722;2023-07-13T02:36:00;8.52;;;2.85;;
52894;SDS011;38759;53.396;6.722;2023-07-13T02:38:25;8.95;;;2.35;;
52894;SDS011;38759;53.396;6.722;2023-07-13T02:40:52;8.98;;;2.25;;
52894;SDS011;38759;53.396;6.722;2023-07-13T02:43:18;10.93;;;1.90;;
52894;SDS011;38759;53.396;6.722;2023-07-13T02:45:44;9.88;;;2.38;;
52894;SDS011;38759;53.396;6.722;2023-07-13T02:48:10;6.35;;;1.90;;
52894;SDS011;38759;53.396;6.722;2023-07-13T02:50:36;12.40;;;1.90;;
52894;SDS011;38759;53.396;6.722;2023-07-13T02:53:02;10.13;;;2.20;;
52894;SDS011;38759;53.396;6.722;2023-07-13T02:55:27;8.57;;;1.83;;
52894;SDS011;38759;53.396;6.722;2023-07-13T02:57:53;8.10;;;2.10;;
52894;SDS011;38759;53.396;6.722;2023-07-13T03:00:19;7.13;;;1.70;;
52894;SDS011;38759;53.396;6.722;2023-07-13T03:02:45;5.55;;;1.50;;
52894;SDS011;38759;53.396;6.722;2023-07-13T03:05:10;8.68;;;1.60;;
52894;SDS011;38759;53.396;6.722;2023-07-13T03:07:38;3.33;;;1.33;;
52894;SDS011;38759;53.396;6.722;2023-07-13T03:10:04;3.53;;;1.33;;
52894;SDS011;38759;53.396;6.722;2023-07-13T03:12:31;3.72;;;1.45;;
52894;SDS011;38759;53.396;6.722;2023-07-13T03:14:57;7.85;;;1.50;;
52894;SDS011;38759;53.396;6.722;2023-07-13T03:17:23;6.82;;;1.83;;
52894;SDS011;38759;53.396;6.722;2023-07-13T03:19:49;7.10;;;1.95;;
52894;SDS011;38759;53.396;6.722;2023-07-13T03:22:19;7.60;;;2.15;;
52894;SDS011;38759;53.396;6.722;2023-07-13T03:24:45;4.90;;;1.35;;
52894;SDS011;38759;53.396;6.722;2023-07-13T03:27:10;5.15;;;1.70;;
52894;SDS011;38759;53.396;6.722;2023-07-13T03:29:36;5.40;;;1.50;;
52894;SDS011;38759;53.396;6.722;2023-07-13T03:32:02;7.32;;;1.90;;
52894;SDS011;38759;53.396;6.722;2023-07-13T03:34:29;6.72;;;1.70;;
52894;SDS011;38759;53.396;6.722;2023-07-13T03:36:55;5.63;;;1.63;;
52894;SDS011;38759;53.396;6.722;2023-07-13T03:39:22;7.85;;;1.58;;
52894;SDS011;38759;53.396;6.722;2023-07-13T03:41:47;5.07;;;1.60;;
52894;SDS011;38759;53.396;6.722;2023-07-13T03:44:15;5.47;;;1.50;;
52894;SDS011;38759;53.396;6.722;2023-07-13T03:46:42;3.75;;;1.45;;
52894;SDS011;38759;53.396;6.722;2023-07-13T03:49:09;5.10;;;1.67;;
52894;SDS011;38759;53.396;6.722;2023-07-13T03:51:35;7.03;;;2.08;;
52894;SDS011;38759;53.396;6.722;2023-07-13T03:54:01;4.57;;;2.03;;
52894;SDS011;38759;53.396;6.722;2023-07-13T03:56:27;6.00;;;1.80;;
52894;SDS011;38759;53.396;6.722;2023-07-13T03:58:53;8.77;;;2.38;;
52894;SDS011;38759;53.396;6.722;2023-07-13T04:01:20;9.32;;;2.22;;
52894;SDS011;38759;53.396;6.722;2023-07-13T04:03:47;12.68;;;2.08;;
52894;SDS011;38759;53.396;6.722;2023-07-13T04:06:18;7.25;;;2.28;;
52894;SDS011;38759;53.396;6.722;2023-07-13T04:08:47;14.23;;;3.08;;
52894;SDS011;38759;53.396;6.722;2023-07-13T04:11:15;12.85;;;2.70;;
52894;SDS011;38759;53.396;6.722;2023-07-13T04:13:41;8.73;;;2.17;;
52894;SDS011;38759;53.396;6.722;2023-07-13T04:16:07;7.75;;;2.15;;
52894;SDS011;38759;53.396;6.722;2023-07-13T04:18:32;11.48;;;2.80;;
52894;SDS011;38759;53.396;6.722;2023-07-13T04:20:58;12.13;;;2.30;;
52894;SDS011;38759;53.396;6.722;2023-07-13T04:23:24;14.23;;;3.10;;
52894;SDS011;38759;53.396;6.722;2023-07-13T04:25:51;9.32;;;2.38;;
52894;SDS011;38759;53.396;6.722;2023-07-13T04:28:18;10.00;;;3.00;;
52894;SDS011;38759;53.396;6.722;2023-07-13T04:30:46;15.00;;;3.20;;
52894;SDS011;38759;53.396;6.722;2023-07-13T04:33:11;10.43;;;2.80;;
52894;SDS011;38759;53.396;6.722;2023-07-13T04:35:37;7.45;;;2.42;;
52894;SDS011;38759;53.396;6.722;2023-07-13T04:38:03;13.23;;;2.47;;
52894;SDS011;38759;53.396;6.722;2023-07-13T04:40:29;13.98;;;3.15;;
52894;SDS011;38759;53.396;6.722;2023-07-13T04:42:55;13.05;;;2.75;;
52894;SDS011;38759;53.396;6.722;2023-07-13T04:45:21;13.70;;;3.15;;
52894;SDS011;38759;53.396;6.722;2023-07-13T04:47:49;23.23;;;2.78;;
52894;SDS011;38759;53.396;6.722;2023-07-13T04:50:15;13.10;;;3.15;;
52894;SDS011;38759;53.396;6.722;2023-07-13T04:52:47;12.10;;;2.80;;
52894;SDS011;38759;53.396;6.722;2023-07-13T04:55:14;18.95;;;3.33;;
52894;SDS011;38759;53.396;6.722;2023-07-13T04:57:40;7.88;;;2.80;;
52894;SDS011;38759;53.396;6.722;2023-07-13T05:00:06;12.40;;;2.88;;
52894;SDS011;38759;53.396;6.722;2023-07-13T05:02:33;13.60;;;2.60;;
52894;SDS011;38759;53.396;6.722;2023-07-13T05:04:59;14.50;;;2.58;;
52894;SDS011;38759;53.396;6.722;2023-07-13T05:07:25;12.55;;;2.72;;
52894;SDS011;38759;53.396;6.722;2023-07-13T05:09:51;12.13;;;2.72;;
52894;SDS011;38759;53.396;6.722;2023-07-13T05:12:17;15.20;;;3.03;;
52894;SDS011;38759;53.396;6.722;2023-07-13T05:14:43;15.38;;;3.20;;
52894;SDS011;38759;53.396;6.722;2023-07-13T05:17:09;13.13;;;3.25;;
52894;SDS011;38759;53.396;6.722;2023-07-13T05:19:35;12.90;;;3.53;;
52894;SDS011;38759;53.396;6.722;2023-07-13T05:22:01;16.67;;;3.63;;
52894;SDS011;38759;53.396;6.722;2023-07-13T05:24:27;17.48;;;3.88;;
52894;SDS011;38759;53.396;6.722;2023-07-13T05:26:53;22.02;;;4.40;;
52894;SDS011;38759;53.396;6.722;2023-07-13T05:29:19;12.73;;;3.70;;
52894;SDS011;38759;53.396;6.722;2023-07-13T05:31:46;13.90;;;2.83;;
52894;SDS011;38759;53.396;6.722;2023-07-13T05:34:12;22.67;;;3.55;;
52894;SDS011;38759;53.396;6.722;2023-07-13T05:36:37;9.52;;;2.63;;
52894;SDS011;38759;53.396;6.722;2023-07-13T05:39:03;8.70;;;2.85;;
52894;SDS011;38759;53.396;6.722;2023-07-13T05:41:29;10.63;;;2.80;;
52894;SDS011;38759;53.396;6.722;2023-07-13T05:43:55;12.68;;;3.03;;
52894;SDS011;38759;53.396;6.722;2023-07-13T05:46:21;14.02;;;3.03;;
52894;SDS011;38759;53.396;6.722;2023-07-13T05:48:46;13.45;;;3.55;;
52894;SDS011;38759;53.396;6.722;2023-07-13T05:51:12;20.55;;;2.90;;
52894;SDS011;38759;53.396;6.722;2023-07-13T05:53:38;10.13;;;2.53;;
52894;SDS011;38759;53.396;6.722;2023-07-13T05:56:04;10.75;;;2.75;;
52894;SDS011;38759;53.396;6.722;2023-07-13T05:58:30;11.20;;;3.05;;
52894;SDS011;38759;53.396;6.722;2023-07-13T06:01:03;10.63;;;3.00;;
52894;SDS011;38759;53.396;6.722;2023-07-13T06:03:30;16.75;;;3.10;;
52894;SDS011;38759;53.396;6.722;2023-07-13T06:05:56;12.32;;;2.88;;
52894;SDS011;38759;53.396;6.722;2023-07-13T06:08:22;15.25;;;2.97;;
52894;SDS011;38759;53.396;6.722;2023-07-13T06:10:48;11.65;;;2.70;;
52894;SDS011;38759;53.396;6.722;2023-07-13T06:13:13;7.30;;;2.72;;
52894;SDS011;38759;53.396;6.722;2023-07-13T06:15:39;20.75;;;4.35;;
52894;SDS011;38759;53.396;6.722;2023-07-13T06:18:05;5.35;;;2.35;;
52894;SDS011;38759;53.396;6.722;2023-07-13T06:20:32;14.70;;;2.70;;
52894;SDS011;38759;53.396;6.722;2023-07-13T06:23:00;9.70;;;2.63;;
52894;SDS011;38759;53.396;6.722;2023-07-13T06:25:26;8.85;;;2.38;;
52894;SDS011;38759;53.396;6.722;2023-07-13T06:27:52;10.82;;;2.42;;
52894;SDS011;38759;53.396;6.722;2023-07-13T06:30:18;12.02;;;2.67;;
52894;SDS011;38759;53.396;6.722;2023-07-13T06:32:43;10.15;;;2.58;;
52894;SDS011;38759;53.396;6.722;2023-07-13T06:35:09;8.60;;;1.92;;
52894;SDS011;38759;53.396;6.722;2023-07-13T06:37:37;11.98;;;2.00;;
52894;SDS011;38759;53.396;6.722;2023-07-13T06:40:03;7.43;;;1.92;;
52894;SDS011;38759;53.396;6.722;2023-07-13T06:42:29;5.32;;;1.50;;
52894;SDS011;38759;53.396;6.722;2023-07-13T06:44:55;7.18;;;2.20;;
52894;SDS011;38759;53.396;6.722;2023-07-13T06:47:20;9.88;;;2.28;;
52894;SDS011;38759;53.396;6.722;2023-07-13T06:49:46;9.68;;;2.72;;
52894;SDS011;38759;53.396;6.722;2023-07-13T06:52:12;11.40;;;2.80;;
52894;SDS011;38759;53.396;6.722;2023-07-13T06:54:37;11.40;;;1.80;;
52894;SDS011;38759;53.396;6.722;2023-07-13T06:57:03;10.23;;;2.33;;
52894;SDS011;38759;53.396;6.722;2023-07-13T06:59:29;12.20;;;2.95;;
52894;SDS011;38759;53.396;6.722;2023-07-13T07:01:55;4.63;;;1.70;;
52894;SDS011;38759;53.396;6.722;2023-07-13T07:04:20;8.70;;;2.20;;
52894;SDS011;38759;53.396;6.722;2023-07-13T07:06:46;7.60;;;1.90;;
52894;SDS011;38759;53.396;6.722;2023-07-13T07:09:12;9.35;;;2.30;;
52894;SDS011;38759;53.396;6.722;2023-07-13T07:11:38;8.77;;;2.15;;
52894;SDS011;38759;53.396;6.722;2023-07-13T07:14:04;6.75;;;2.13;;
52894;SDS011;38759;53.396;6.722;2023-07-13T07:16:30;7.70;;;1.65;;
52894;SDS011;38759;53.396;6.722;2023-07-13T07:18:56;10.38;;;1.67;;
52894;SDS011;38759;53.396;6.722;2023-07-13T07:21:21;11.13;;;2.45;;
52894;SDS011;38759;53.396;6.722;2023-07-13T07:23:52;7.35;;;2.22;;
52894;SDS011;38759;53.396;6.722;2023-07-13T07:26:18;10.60;;;2.08;;
52894;SDS011;38759;53.396;6.722;2023-07-13T07:28:44;11.95;;;2.33;;
52894;SDS011;38759;53.396;6.722;2023-07-13T07:31:10;6.35;;;1.80;;
52894;SDS011;38759;53.396;6.722;2023-07-13T07:33:36;7.80;;;1.70;;
52894;SDS011;38759;53.396;6.722;2023-07-13T07:36:02;3.97;;;1.38;;
52894;SDS011;38759;53.396;6.722;2023-07-13T07:38:28;4.75;;;1.40;;
52894;SDS011;38759;53.396;6.722;2023-07-13T07:40:54;4.05;;;1.40;;
52894;SDS011;38759;53.396;6.722;2023-07-13T07:43:19;5.72;;;1.77;;
52894;SDS011;38759;53.396;6.722;2023-07-13T07:45:45;5.55;;;1.77;;
52894;SDS011;38759;53.396;6.722;2023-07-13T07:48:11;4.57;;;1.60;;
52894;SDS011;38759;53.396;6.722;2023-07-13T07:50:37;4.80;;;1.70;;
52894;SDS011;38759;53.396;6.722;2023-07-13T07:53:04;8.50;;;1.65;;
52894;SDS011;38759;53.396;6.722;2023-07-13T07:55:33;6.32;;;1.60;;
52894;SDS011;38759;53.396;6.722;2023-07-13T07:58:02;8.02;;;1.98;;
52894;SDS011;38759;53.396;6.722;2023-07-13T08:00:28;3.17;;;1.20;;
52894;SDS011;38759;53.396;6.722;2023-07-13T08:02:58;5.72;;;1.70;;
52894;SDS011;38759;53.396;6.722;2023-07-13T08:05:24;8.98;;;1.85;;
52894;SDS011;38759;53.396;6.722;2023-07-13T08:07:50;4.43;;;1.63;;
52894;SDS011;38759;53.396;6.722;2023-07-13T08:10:16;5.18;;;1.90;;
52894;SDS011;38759;53.396;6.722;2023-07-13T08:12:42;7.68;;;2.25;;
52894;SDS011;38759;53.396;6.722;2023-07-13T08:15:10;3.92;;;1.42;;
52894;SDS011;38759;53.396;6.722;2023-07-13T08:17:37;8.68;;;1.27;;
52894;SDS011;38759;53.396;6.722;2023-07-13T08:20:03;3.50;;;1.17;;
52894;SDS011;38759;53.396;6.722;2023-07-13T08:22:29;5.07;;;1.55;;
52894;SDS011;38759;53.396;6.722;2023-07-13T08:24:55;5.53;;;1.55;;
52894;SDS011;38759;53.396;6.722;2023-07-13T08:27:21;8.35;;;1.63;;
52894;SDS011;38759;53.396;6.722;2023-07-13T08:29:48;3.78;;;1.30;;
52894;SDS011;38759;53.396;6.722;2023-07-13T08:32:14;7.93;;;1.40;;
52894;SDS011;38759;53.396;6.722;2023-07-13T08:34:40;4.85;;;1.63;;
52894;SDS011;38759;53.396;6.722;2023-07-13T08:37:06;5.78;;;1.23;;
52894;SDS011;38759;53.396;6.722;2023-07-13T08:39:32;6.03;;;1.60;;
52894;SDS011;38759;53.396;6.722;2023-07-13T08:42:00;6.00;;;1.70;;
52894;SDS011;38759;53.396;6.722;2023-07-13T08:44:39;5.82;;;1.80;;
52894;SDS011;38759;53.396;6.722;2023-07-13T08:47:22;9.88;;;1.60;;
52894;SDS011;38759;53.396;6.722;2023-07-13T08:49:49;4.80;;;2.00;;
52894;SDS011;38759;53.396;6.722;2023-07-13T08:54:55;4.93;;;1.60;;
52894;SDS011;38759;53.396;6.722;2023-07-13T08:57:24;5.75;;;1.98;;
52894;SDS011;38759;53.396;6.722;2023-07-13T08:59:56;3.75;;;1.70;;
52894;SDS011;38759;53.396;6.722;2023-07-13T09:02:28;2.85;;;1.58;;
52894;SDS011;38759;53.396;6.722;2023-07-13T09:05:12;5.95;;;1.67;;
52894;SDS011;38759;53.396;6.722;2023-07-13T09:14:05;5.30;;;1.98;;
52894;SDS011;38759;53.396;6.722;2023-07-13T09:16:51;5.95;;;1.85;;
52894;SDS011;38759;53.396;6.722;2023-07-13T09:19:23;6.50;;;1.95;;
52894;SDS011;38759;53.396;6.722;2023-07-13T09:21:55;6.40;;;1.77;;
52894;SDS011;38759;53.396;6.722;2023-07-13T09:24:26;4.20;;;1.90;;
52894;SDS011;38759;53.396;6.722;2023-07-13T09:27:01;8.73;;;1.98;;
52894;SDS011;38759;53.396;6.722;2023-07-13T09:30:04;4.90;;;1.48;;
52894;SDS011;38759;53.396;6.722;2023-07-13T09:32:39;7.63;;;1.60;;
52894;SDS011;38759;53.396;6.722;2023-07-13T09:35:12;10.63;;;2.33;;
52894;SDS011;38759;53.396;6.722;2023-07-13T09:37:40;7.35;;;2.30;;
52894;SDS011;38759;53.396;6.722;2023-07-13T09:40:24;5.82;;;1.92;;
52894;SDS011;38759;53.396;6.722;2023-07-13T09:42:54;8.97;;;1.93;;
52894;SDS011;38759;53.396;6.722;2023-07-13T09:45:26;8.63;;;2.30;;
52894;SDS011;38759;53.396;6.722;2023-07-13T09:48:04;6.40;;;1.80;;
52894;SDS011;38759;53.396;6.722;2023-07-13T09:50:33;6.50;;;2.25;;
52894;SDS011;38759;53.396;6.722;2023-07-13T09:53:00;6.40;;;2.10;;
52894;SDS011;38759;53.396;6.722;2023-07-13T09:55:39;6.50;;;2.00;;
52894;SDS011;38759;53.396;6.722;2023-07-13T10:03:29;12.43;;;2.30;;
52894;SDS011;38759;53.396;6.722;2023-07-13T10:08:39;11.70;;;3.03;;
52894;SDS011;38759;53.396;6.722;2023-07-13T10:13:36;5.38;;;1.52;;
52894;SDS011;38759;53.396;6.722;2023-07-13T10:16:06;2.15;;;1.08;;
52894;SDS011;38759;53.396;6.722;2023-07-13T10:18:49;1.92;;;1.30;;
52894;SDS011;38759;53.396;6.722;2023-07-13T10:21:26;1.92;;;1.20;;
52894;SDS011;38759;53.396;6.722;2023-07-13T10:24:06;3.67;;;1.30;;
52894;SDS011;38759;53.396;6.722;2023-07-13T10:26:42;5.55;;;1.50;;
52894;SDS011;38759;53.396;6.722;2023-07-13T10:29:14;7.63;;;1.30;;
52894;SDS011;38759;53.396;6.722;2023-07-13T10:31:44;2.20;;;0.98;;
52894;SDS011;38759;53.396;6.722;2023-07-13T10:34:11;2.15;;;1.15;;
52894;SDS011;38759;53.396;6.722;2023-07-13T10:36:47;2.47;;;1.30;;
52894;SDS011;38759;53.396;6.722;2023-07-13T10:39:24;3.50;;;1.27;;
52894;SDS011;38759;53.396;6.722;2023-07-13T10:41:57;4.32;;;1.00;;
52894;SDS011;38759;53.396;6.722;2023-07-13T10:44:28;4.53;;;1.02;;
52894;SDS011;38759;53.396;6.722;2023-07-13T10:46:56;2.78;;;0.70;;
52894;SDS011;38759;53.396;6.722;2023-07-13T10:49:26;3.05;;;0.95;;
52894;SDS011;38759;53.396;6.722;2023-07-13T10:51:56;7.40;;;1.27;;
52894;SDS011;38759;53.396;6.722;2023-07-13T10:54:26;2.60;;;0.80;;
52894;SDS011;38759;53.396;6.722;2023-07-13T10:57:10;1.10;;;0.60;;
52894;SDS011;38759;53.396;6.722;2023-07-13T10:59:42;4.25;;;1.05;;
52894;SDS011;38759;53.396;6.722;2023-07-13T11:02:12;3.35;;;0.95;;
52894;SDS011;38759;53.396;6.722;2023-07-13T11:04:48;7.32;;;1.10;;
52894;SDS011;38759;53.396;6.722;2023-07-13T11:07:22;5.43;;;1.17;;
52894;SDS011;38759;53.396;6.722;2023-07-13T11:09:50;4.25;;;1.10;;
52894;SDS011;38759;53.396;6.722;2023-07-13T11:22:48;1.67;;;1.00;;
52894;SDS011;38759;53.396;6.722;2023-07-13T11:25:32;5.80;;;1.35;;
52894;SDS011;38759;53.396;6.722;2023-07-13T11:30:38;3.47;;;1.15;;
52894;SDS011;38759;53.396;6.722;2023-07-13T11:33:13;5.07;;;1.10;;
52894;SDS011;38759;53.396;6.722;2023-07-13T11:40:58;2.92;;;1.00;;
52894;SDS011;38759;53.396;6.722;2023-07-13T11:43:28;9.93;;;1.40;;
52894;SDS011;38759;53.396;6.722;2023-07-13T11:45:55;3.80;;;1.50;;
52894;SDS011;38759;53.396;6.722;2023-07-13T11:48:27;5.25;;;1.33;;
52894;SDS011;38759;53.396;6.722;2023-07-13T11:50:56;3.92;;;1.40;;
52894;SDS011;38759;53.396;6.722;2023-07-13T11:53:30;4.50;;;1.52;;
52894;SDS011;38759;53.396;6.722;2023-07-13T11:56:03;9.07;;;1.98;;
52894;SDS011;38759;53.396;6.722;2023-07-13T11:58:29;5.53;;;1.70;;
52894;SDS011;38759;53.396;6.722;2023-07-13T12:00:55;6.63;;;1.67;;
52894;SDS011;38759;53.396;6.722;2023-07-13T12:03:26;2.97;;;1.60;;
52894;SDS011;38759;53.396;6.722;2023-07-13T12:06:00;4.20;;;1.60;;
52894;SDS011;38759;53.396;6.722;2023-07-13T12:08:28;6.65;;;1.58;;
52894;SDS011;38759;53.396;6.722;2023-07-13T12:11:02;6.45;;;1.85;;
52894;SDS011;38759;53.396;6.722;2023-07-13T12:13:34;5.97;;;1.73;;
52894;SDS011;38759;53.396;6.722;2023-07-13T12:18:58;4.72;;;1.35;;
52894;SDS011;38759;53.396;6.722;2023-07-13T12:21:32;5.60;;;1.52;;
52894;SDS011;38759;53.396;6.722;2023-07-13T12:24:00;6.97;;;1.40;;
52894;SDS011;38759;53.396;6.722;2023-07-13T12:26:27;8.55;;;1.70;;
52894;SDS011;38759;53.396;6.722;2023-07-13T12:28:55;9.68;;;1.50;;
52894;SDS011;38759;53.396;6.722;2023-07-13T12:31:24;5.75;;;1.58;;
52894;SDS011;38759;53.396;6.722;2023-07-13T12:34:00;2.92;;;1.50;;
52894;SDS011;38759;53.396;6.722;2023-07-13T12:36:33;9.20;;;1.70;;
52894;SDS011;38759;53.396;6.722;2023-07-13T12:39:10;6.78;;;2.05;;
52894;SDS011;38759;53.396;6.722;2023-07-13T12:41:39;6.80;;;1.95;;
52894;SDS011;38759;53.396;6.722;2023-07-13T12:44:12;5.75;;;1.60;;
52894;SDS011;38759;53.396;6.722;2023-07-13T12:46:50;6.20;;;2.00;;
52894;SDS011;38759;53.396;6.722;2023-07-13T12:49:18;8.80;;;2.40;;
52894;SDS011;38759;53.396;6.722;2023-07-13T12:51:50;5.20;;;1.80;;
52894;SDS011;38759;53.396;6.722;2023-07-13T12:54:17;5.97;;;1.90;;
52894;SDS011;38759;53.396;6.722;2023-07-13T12:56:44;5.65;;;2.08;;
52894;SDS011;38759;53.396;6.722;2023-07-13T12:59:16;8.90;;;1.90;;
52894;SDS011;38759;53.396;6.722;2023-07-13T13:01:45;4.15;;;1.92;;
52894;SDS011;38759;53.396;6.722;2023-07-13T13:04:11;12.25;;;2.00;;
52894;SDS011;38759;53.396;6.722;2023-07-13T13:06:38;10.77;;;2.30;;
52894;SDS011;38759;53.396;6.722;2023-07-13T13:09:09;9.80;;;2.10;;
52894;SDS011;38759;53.396;6.722;2023-07-13T13:11:38;9.18;;;2.17;;
52894;SDS011;38759;53.396;6.722;2023-07-13T13:14:05;3.75;;;1.38;;
52894;SDS011;38759;53.396;6.722;2023-07-13T13:16:33;10.35;;;2.05;;
52894;SDS011;38759;53.396;6.722;2023-07-13T13:19:02;9.52;;;1.75;;
52894;SDS011;38759;53.396;6.722;2023-07-13T13:21:46;4.90;;;1.70;;
52894;SDS011;38759;53.396;6.722;2023-07-13T13:24:20;4.50;;;1.70;;
52894;SDS011;38759;53.396;6.722;2023-07-13T13:26:47;10.23;;;2.22;;
52894;SDS011;38759;53.396;6.722;2023-07-13T13:29:14;6.75;;;1.52;;
52894;SDS011;38759;53.396;6.722;2023-07-13T13:31:42;11.40;;;2.03;;
52894;SDS011;38759;53.396;6.722;2023-07-13T13:34:13;5.57;;;1.42;;
52894;SDS011;38759;53.396;6.722;2023-07-13T13:36:41;15.75;;;2.55;;
52894;SDS011;38759;53.396;6.722;2023-07-13T13:39:16;11.38;;;2.50;;
52894;SDS011;38759;53.396;6.722;2023-07-13T13:41:43;12.60;;;2.53;;
52894;SDS011;38759;53.396;6.722;2023-07-13T13:44:09;16.02;;;2.92;;
52894;SDS011;38759;53.396;6.722;2023-07-13T13:46:35;17.10;;;2.75;;
52894;SDS011;38759;53.396;6.722;2023-07-13T13:49:01;12.10;;;2.72;;
52894;SDS011;38759;53.396;6.722;2023-07-13T13:51:27;9.10;;;2.03;;
52894;SDS011;38759;53.396;6.722;2023-07-13T13:53:54;14.93;;;2.70;;
52894;SDS011;38759;53.396;6.722;2023-07-13T13:56:20;11.25;;;2.95;;
52894;SDS011;38759;53.396;6.722;2023-07-13T13:58:46;18.48;;;2.72;;
52894;SDS011;38759;53.396;6.722;2023-07-13T14:01:21;10.23;;;2.78;;
52894;SDS011;38759;53.396;6.722;2023-07-13T14:03:49;3.42;;;1.60;;
52894;SDS011;38759;53.396;6.722;2023-07-13T14:06:18;15.32;;;2.00;;
52894;SDS011;38759;53.396;6.722;2023-07-13T14:08:44;5.18;;;1.90;;
52894;SDS011;38759;53.396;6.722;2023-07-13T14:11:14;9.52;;;2.53;;
52894;SDS011;38759;53.396;6.722;2023-07-13T14:13:43;12.23;;;2.65;;
52894;SDS011;38759;53.396;6.722;2023-07-13T14:16:17;11.23;;;2.03;;
52894;SDS011;38759;53.396;6.722;2023-07-13T14:18:44;11.10;;;2.05;;
52894;SDS011;38759;53.396;6.722;2023-07-13T14:21:18;10.75;;;1.63;;
52894;SDS011;38759;53.396;6.722;2023-07-13T14:23:47;2.90;;;1.42;;
52894;SDS011;38759;53.396;6.722;2023-07-13T14:26:18;10.48;;;1.92;;
52894;SDS011;38759;53.396;6.722;2023-07-13T14:28:50;7.05;;;1.92;;
52894;SDS011;38759;53.396;6.722;2023-07-13T14:31:17;4.63;;;1.63;;
52894;SDS011;38759;53.396;6.722;2023-07-13T14:33:44;8.48;;;1.80;;
52894;SDS011;38759;53.396;6.722;2023-07-13T14:36:17;8.98;;;2.35;;
52894;SDS011;38759;53.396;6.722;2023-07-13T14:38:51;9.52;;;1.98;;
52894;SDS011;38759;53.396;6.722;2023-07-13T14:41:18;9.93;;;1.85;;
52894;SDS011;38759;53.396;6.722;2023-07-13T14:43:44;11.77;;;2.10;;
52894;SDS011;38759;53.396;6.722;2023-07-13T14:46:28;8.63;;;2.45;;
52894;SDS011;38759;53.396;6.722;2023-07-13T14:48:59;6.15;;;1.77;;
52894;SDS011;38759;53.396;6.722;2023-07-13T14:51:28;11.10;;;2.08;;
52894;SDS011;38759;53.396;6.722;2023-07-13T14:53:55;5.72;;;1.90;;
52894;SDS011;38759;53.396;6.722;2023-07-13T14:56:21;10.82;;;2.00;;
52894;SDS011;38759;53.396;6.722;2023-07-13T14:58:46;14.07;;;2.63;;
52894;SDS011;38759;53.396;6.722;2023-07-13T15:01:12;7.95;;;2.40;;
52894;SDS011;38759;53.396;6.722;2023-07-13T15:03:44;10.27;;;2.67;;
52894;SDS011;38759;53.396;6.722;2023-07-13T15:06:11;6.68;;;2.13;;
52894;SDS011;38759;53.396;6.722;2023-07-13T15:08:38;10.07;;;2.60;;
52894;SDS011;38759;53.396;6.722;2023-07-13T15:11:06;7.00;;;2.38;;
52894;SDS011;38759;53.396;6.722;2023-07-13T15:13:32;8.00;;;2.30;;
52894;SDS011;38759;53.396;6.722;2023-07-13T15:15:59;9.30;;;2.30;;
52894;SDS011;38759;53.396;6.722;2023-07-13T15:18:25;10.63;;;2.25;;
52894;SDS011;38759;53.396;6.722;2023-07-13T15:20:52;9.32;;;2.30;;
52894;SDS011;38759;53.396;6.722;2023-07-13T15:23:20;7.15;;;1.63;;
52894;SDS011;38759;53.396;6.722;2023-07-13T15:25:47;8.10;;;2.13;;
52894;SDS011;38759;53.396;6.722;2023-07-13T15:28:13;7.05;;;2.22;;
52894;SDS011;38759;53.396;6.722;2023-07-13T15:33:14;9.70;;;2.92;;